sensor_id;sensor_type;location;lat;lon;timestamp;temperature;humidity
22742;DHT22;11538;48.884;8.696;2022-11-13T00:00:37;6.10;99.90
22742;DHT22;11538;48.884;8.696;2022-11-13T00:03:03;6.10;99.90
22742;DHT22;11538;48.884;8.696;2022-11-13T00:05:30;6.10;99.90
22742;DHT22;11538;48.884;8.696;2022-11-13T00:07:57;6.10;99.90
22742;DHT22;11538;48.884;8.696;2022-11-13T00:10:24;6.10;99.90
22742;DHT22;11538;48.884;8.696;2022-11-13T00:12:50;6.00;99.90
22742;DHT22;11538;48.884;8.696;2022-11-13T00:15:19;6.00;99.90
22742;DHT22;11538;48.884;8.696;2022-11-13T00:17:45;6.00;99.90
22742;DHT22;11538;48.884;8.696;2022-11-13T00:20:12;5.90;99.90
22742;DHT22;11538;48.884;8.696;2022-11-13T00:22:39;5.90;99.90
22742;DHT22;11538;48.884;8.696;2022-11-13T00:25:06;5.90;99.90
22742;DHT22;11538;48.884;8.696;2022-11-13T00:27:32;5.90;99.90
22742;DHT22;11538;48.884;8.696;2022-11-13T00:29:59;5.90;99.90
22742;DHT22;11538;48.884;8.696;2022-11-13T00:32:26;5.80;99.90
22742;DHT22;11538;48.884;8.696;2022-11-13T00:34:53;5.80;99.90
22742;DHT22;11538;48.884;8.696;2022-11-13T00:37:19;5.80;99.90
22742;DHT22;11538;48.884;8.696;2022-11-13T00:39:46;5.80;99.90
22742;DHT22;11538;48.884;8.696;2022-11-13T00:42:13;5.80;99.90
22742;DHT22;11538;48.884;8.696;2022-11-13T00:44:40;5.80;99.90
22742;DHT22;11538;48.884;8.696;2022-11-13T00:47:07;5.70;99.90
22742;DHT22;11538;48.884;8.696;2022-11-13T00:49:33;5.70;99.90
22742;DHT22;11538;48.884;8.696;2022-11-13T00:52:00;5.70;99.90
22742;DHT22;11538;48.884;8.696;2022-11-13T00:54:29;5.70;99.90
22742;DHT22;11538;48.884;8.696;2022-11-13T00:56:55;5.70;99.90
22742;DHT22;11538;48.884;8.696;2022-11-13T00:59:22;5.70;99.90
22742;DHT22;11538;48.884;8.696;2022-11-13T01:01:49;5.70;99.90
22742;DHT22;11538;48.884;8.696;2022-11-13T01:04:16;5.70;99.90
22742;DHT22;11538;48.884;8.696;2022-11-13T01:06:43;5.60;99.90
22742;DHT22;11538;48.884;8.696;2022-11-13T01:09:09;5.60;99.90
22742;DHT22;11538;48.884;8.696;2022-11-13T01:11:36;5.50;99.90
22742;DHT22;11538;48.884;8.696;2022-11-13T01:14:03;5.50;99.90
22742;DHT22;11538;48.884;8.696;2022-11-13T01:16:29;5.50;99.90
22742;DHT22;11538;48.884;8.696;2022-11-13T01:18:56;5.40;99.90
22742;DHT22;11538;48.884;8.696;2022-11-13T01:21:23;5.40;99.90
22742;DHT22;11538;48.884;8.696;2022-11-13T01:23:52;5.40;99.90
22742;DHT22;11538;48.884;8.696;2022-11-13T01:26:24;5.40;99.90
22742;DHT22;11538;48.884;8.696;2022-11-13T01:28:54;5.40;99.90
22742;DHT22;11538;48.884;8.696;2022-11-13T01:31:23;5.40;99.90
22742;DHT22;11538;48.884;8.696;2022-11-13T01:33:52;5.30;99.90
22742;DHT22;11538;48.884;8.696;2022-11-13T01:36:20;5.30;99.90
22742;DHT22;11538;48.884;8.696;2022-11-13T01:38:49;5.30;99.90
22742;DHT22;11538;48.884;8.696;2022-11-13T01:41:17;5.30;99.90
22742;DHT22;11538;48.884;8.696;2022-11-13T01:43:50;5.30;99.90
22742;DHT22;11538;48.884;8.696;2022-11-13T01:46:18;5.20;99.90
22742;DHT22;11538;48.884;8.696;2022-11-13T01:49:34;5.20;99.90
22742;DHT22;11538;48.884;8.696;2022-11-13T01:51:39;5.30;99.90
22742;DHT22;11538;48.884;8.696;2022-11-13T01:54:09;5.30;99.90
22742;DHT22;11538;48.884;8.696;2022-11-13T01:56:38;5.30;99.90
22742;DHT22;11538;48.884;8.696;2022-11-13T01:59:13;5.30;99.90
22742;DHT22;11538;48.884;8.696;2022-11-13T02:01:42;5.30;99.90
22742;DHT22;11538;48.884;8.696;2022-11-13T02:04:09;5.30;99.90
22742;DHT22;11538;48.884;8.696;2022-11-13T02:06:41;5.30;99.90
22742;DHT22;11538;48.884;8.696;2022-11-13T02:09:25;5.30;99.90
22742;DHT22;11538;48.884;8.696;2022-11-13T02:11:54;5.30;99.90
22742;DHT22;11538;48.884;8.696;2022-11-13T02:14:22;5.30;99.90
22742;DHT22;11538;48.884;8.696;2022-11-13T02:16:53;5.20;99.90
22742;DHT22;11538;48.884;8.696;2022-11-13T02:19:25;5.20;99.90
22742;DHT22;11538;48.884;8.696;2022-11-13T02:22:02;5.20;99.90
22742;DHT22;11538;48.884;8.696;2022-11-13T02:24:40;5.20;99.90
22742;DHT22;11538;48.884;8.696;2022-11-13T02:30:18;5.10;99.90
22742;DHT22;11538;48.884;8.696;2022-11-13T02:32:53;5.10;99.90
22742;DHT22;11538;48.884;8.696;2022-11-13T02:35:31;5.10;99.90
22742;DHT22;11538;48.884;8.696;2022-11-13T02:38:01;5.10;99.90
22742;DHT22;11538;48.884;8.696;2022-11-13T02:40:30;5.20;99.90
22742;DHT22;11538;48.884;8.696;2022-11-13T02:42:58;5.20;99.90
22742;DHT22;11538;48.884;8.696;2022-11-13T02:45:25;5.20;99.90
22742;DHT22;11538;48.884;8.696;2022-11-13T02:47:51;5.20;99.90
22742;DHT22;11538;48.884;8.696;2022-11-13T02:50:18;5.20;99.90
22742;DHT22;11538;48.884;8.696;2022-11-13T02:52:45;5.20;99.90
22742;DHT22;11538;48.884;8.696;2022-11-13T02:55:12;5.20;99.90
22742;DHT22;11538;48.884;8.696;2022-11-13T02:57:38;5.30;99.90
22742;DHT22;11538;48.884;8.696;2022-11-13T03:00:05;5.20;99.90
22742;DHT22;11538;48.884;8.696;2022-11-13T03:02:39;5.30;99.90
22742;DHT22;11538;48.884;8.696;2022-11-13T03:05:06;5.30;99.90
22742;DHT22;11538;48.884;8.696;2022-11-13T03:07:39;5.30;99.90
22742;DHT22;11538;48.884;8.696;2022-11-13T03:10:06;5.30;99.90
22742;DHT22;11538;48.884;8.696;2022-11-13T03:12:35;5.30;99.90
22742;DHT22;11538;48.884;8.696;2022-11-13T03:15:02;5.20;99.90
22742;DHT22;11538;48.884;8.696;2022-11-13T03:17:30;5.20;99.90
22742;DHT22;11538;48.884;8.696;2022-11-13T03:19:57;5.20;99.90
22742;DHT22;11538;48.884;8.696;2022-11-13T03:22:24;5.20;99.90
22742;DHT22;11538;48.884;8.696;2022-11-13T03:24:50;5.20;99.90
22742;DHT22;11538;48.884;8.696;2022-11-13T03:27:17;5.20;99.90
22742;DHT22;11538;48.884;8.696;2022-11-13T03:29:44;5.30;99.90
22742;DHT22;11538;48.884;8.696;2022-11-13T03:32:11;5.20;99.90
22742;DHT22;11538;48.884;8.696;2022-11-13T03:34:38;5.20;99.90
22742;DHT22;11538;48.884;8.696;2022-11-13T03:37:04;5.20;99.90
22742;DHT22;11538;48.884;8.696;2022-11-13T03:39:31;5.20;99.90
22742;DHT22;11538;48.884;8.696;2022-11-13T03:41:58;5.20;99.90
22742;DHT22;11538;48.884;8.696;2022-11-13T03:44:25;5.20;99.90
22742;DHT22;11538;48.884;8.696;2022-11-13T03:46:51;5.10;99.90
22742;DHT22;11538;48.884;8.696;2022-11-13T03:49:18;5.10;99.90
22742;DHT22;11538;48.884;8.696;2022-11-13T03:51:45;5.10;99.90
22742;DHT22;11538;48.884;8.696;2022-11-13T03:54:11;5.00;99.90
22742;DHT22;11538;48.884;8.696;2022-11-13T03:56:38;5.00;99.90
22742;DHT22;11538;48.884;8.696;2022-11-13T03:59:05;5.00;99.90
22742;DHT22;11538;48.884;8.696;2022-11-13T04:01:31;5.00;99.90
22742;DHT22;11538;48.884;8.696;2022-11-13T04:03:58;4.90;99.90
22742;DHT22;11538;48.884;8.696;2022-11-13T04:06:25;4.90;99.90
22742;DHT22;11538;48.884;8.696;2022-11-13T04:08:52;4.90;99.90
22742;DHT22;11538;48.884;8.696;2022-11-13T04:11:19;4.90;99.90
22742;DHT22;11538;48.884;8.696;2022-11-13T04:13:46;4.90;99.90
22742;DHT22;11538;48.884;8.696;2022-11-13T04:16:12;4.80;99.90
22742;DHT22;11538;48.884;8.696;2022-11-13T04:18:39;4.80;99.90
22742;DHT22;11538;48.884;8.696;2022-11-13T04:21:06;4.90;99.90
22742;DHT22;11538;48.884;8.696;2022-11-13T04:23:33;4.90;99.90
22742;DHT22;11538;48.884;8.696;2022-11-13T04:25:59;4.90;99.90
22742;DHT22;11538;48.884;8.696;2022-11-13T04:28:26;4.90;99.90
22742;DHT22;11538;48.884;8.696;2022-11-13T04:30:54;4.80;99.90
22742;DHT22;11538;48.884;8.696;2022-11-13T04:33:21;4.80;99.90
22742;DHT22;11538;48.884;8.696;2022-11-13T04:35:48;4.90;99.90
22742;DHT22;11538;48.884;8.696;2022-11-13T04:38:15;4.80;99.90
22742;DHT22;11538;48.884;8.696;2022-11-13T04:40:42;4.80;99.90
22742;DHT22;11538;48.884;8.696;2022-11-13T04:43:09;4.70;99.90
22742;DHT22;11538;48.884;8.696;2022-11-13T04:45:36;4.70;99.90
22742;DHT22;11538;48.884;8.696;2022-11-13T04:48:03;4.70;99.90
22742;DHT22;11538;48.884;8.696;2022-11-13T04:50:29;4.60;99.90
22742;DHT22;11538;48.884;8.696;2022-11-13T04:52:57;4.60;99.90
22742;DHT22;11538;48.884;8.696;2022-11-13T04:55:24;4.60;99.90
22742;DHT22;11538;48.884;8.696;2022-11-13T04:57:52;4.60;99.90
22742;DHT22;11538;48.884;8.696;2022-11-13T05:00:21;4.60;99.90
22742;DHT22;11538;48.884;8.696;2022-11-13T05:02:48;4.60;99.90
22742;DHT22;11538;48.884;8.696;2022-11-13T05:05:15;4.60;99.90
22742;DHT22;11538;48.884;8.696;2022-11-13T05:07:42;4.60;99.90
22742;DHT22;11538;48.884;8.696;2022-11-13T05:10:09;4.50;99.90
22742;DHT22;11538;48.884;8.696;2022-11-13T05:12:36;4.50;99.90
22742;DHT22;11538;48.884;8.696;2022-11-13T05:15:02;4.50;99.90
22742;DHT22;11538;48.884;8.696;2022-11-13T05:17:30;4.50;99.90
22742;DHT22;11538;48.884;8.696;2022-11-13T05:19:56;4.40;99.90
22742;DHT22;11538;48.884;8.696;2022-11-13T05:22:23;4.40;99.90
22742;DHT22;11538;48.884;8.696;2022-11-13T05:24:50;4.50;99.90
22742;DHT22;11538;48.884;8.696;2022-11-13T05:27:16;4.40;99.90
22742;DHT22;11538;48.884;8.696;2022-11-13T05:29:43;4.40;99.90
22742;DHT22;11538;48.884;8.696;2022-11-13T05:32:10;4.40;99.90
22742;DHT22;11538;48.884;8.696;2022-11-13T05:34:37;4.40;99.90
22742;DHT22;11538;48.884;8.696;2022-11-13T05:37:04;4.40;99.90
22742;DHT22;11538;48.884;8.696;2022-11-13T05:39:31;4.40;99.90
22742;DHT22;11538;48.884;8.696;2022-11-13T05:41:57;4.40;99.90
22742;DHT22;11538;48.884;8.696;2022-11-13T05:44:24;4.40;99.90
22742;DHT22;11538;48.884;8.696;2022-11-13T05:46:51;4.30;99.90
22742;DHT22;11538;48.884;8.696;2022-11-13T05:49:18;4.30;99.90
22742;DHT22;11538;48.884;8.696;2022-11-13T05:51:44;4.20;99.90
22742;DHT22;11538;48.884;8.696;2022-11-13T05:54:11;4.20;99.90
22742;DHT22;11538;48.884;8.696;2022-11-13T05:56:38;4.10;99.90
22742;DHT22;11538;48.884;8.696;2022-11-13T05:59:05;4.00;99.90
22742;DHT22;11538;48.884;8.696;2022-11-13T06:01:34;4.00;99.90
22742;DHT22;11538;48.884;8.696;2022-11-13T06:04:03;4.00;99.90
22742;DHT22;11538;48.884;8.696;2022-11-13T06:06:31;3.90;99.90
22742;DHT22;11538;48.884;8.696;2022-11-13T06:09:00;3.90;99.90
22742;DHT22;11538;48.884;8.696;2022-11-13T06:11:28;3.90;99.90
22742;DHT22;11538;48.884;8.696;2022-11-13T06:13:57;3.90;99.90
22742;DHT22;11538;48.884;8.696;2022-11-13T06:16:25;3.90;99.90
22742;DHT22;11538;48.884;8.696;2022-11-13T06:19:00;3.90;99.90
22742;DHT22;11538;48.884;8.696;2022-11-13T06:21:29;3.90;99.90
22742;DHT22;11538;48.884;8.696;2022-11-13T06:23:57;3.90;99.90
22742;DHT22;11538;48.884;8.696;2022-11-13T06:26:28;3.80;99.90
22742;DHT22;11538;48.884;8.696;2022-11-13T06:28:57;3.80;99.90
22742;DHT22;11538;48.884;8.696;2022-11-13T06:31:26;3.80;99.90
22742;DHT22;11538;48.884;8.696;2022-11-13T06:33:55;3.80;99.90
22742;DHT22;11538;48.884;8.696;2022-11-13T06:36:26;3.80;99.90
22742;DHT22;11538;48.884;8.696;2022-11-13T06:38:54;3.80;99.90
22742;DHT22;11538;48.884;8.696;2022-11-13T06:41:22;3.80;99.90
22742;DHT22;11538;48.884;8.696;2022-11-13T06:43:51;3.80;99.90
22742;DHT22;11538;48.884;8.696;2022-11-13T06:46:24;3.80;99.90
22742;DHT22;11538;48.884;8.696;2022-11-13T06:48:52;3.80;99.90
22742;DHT22;11538;48.884;8.696;2022-11-13T06:51:20;3.80;99.90
22742;DHT22;11538;48.884;8.696;2022-11-13T06:53:48;3.80;99.90
22742;DHT22;11538;48.884;8.696;2022-11-13T06:56:16;3.80;99.90
22742;DHT22;11538;48.884;8.696;2022-11-13T06:58:43;3.80;99.90
22742;DHT22;11538;48.884;8.696;2022-11-13T07:01:14;3.80;99.90
22742;DHT22;11538;48.884;8.696;2022-11-13T07:03:43;3.80;99.90
22742;DHT22;11538;48.884;8.696;2022-11-13T07:06:14;3.90;99.90
22742;DHT22;11538;48.884;8.696;2022-11-13T07:08:43;3.90;99.90
22742;DHT22;11538;48.884;8.696;2022-11-13T07:11:11;4.00;99.90
22742;DHT22;11538;48.884;8.696;2022-11-13T07:13:40;4.00;99.90
22742;DHT22;11538;48.884;8.696;2022-11-13T07:16:08;4.00;99.90
22742;DHT22;11538;48.884;8.696;2022-11-13T07:18:43;3.90;99.90
22742;DHT22;11538;48.884;8.696;2022-11-13T07:21:15;3.90;99.90
22742;DHT22;11538;48.884;8.696;2022-11-13T07:23:41;3.90;99.90
22742;DHT22;11538;48.884;8.696;2022-11-13T07:26:09;3.90;99.90
22742;DHT22;11538;48.884;8.696;2022-11-13T07:28:37;3.90;99.90
22742;DHT22;11538;48.884;8.696;2022-11-13T07:31:04;3.90;99.90
22742;DHT22;11538;48.884;8.696;2022-11-13T07:33:32;4.00;99.90
22742;DHT22;11538;48.884;8.696;2022-11-13T07:36:01;4.00;99.90
22742;DHT22;11538;48.884;8.696;2022-11-13T07:38:29;4.00;99.90
22742;DHT22;11538;48.884;8.696;2022-11-13T07:40:57;4.10;99.90
22742;DHT22;11538;48.884;8.696;2022-11-13T07:43:25;4.10;99.90
22742;DHT22;11538;48.884;8.696;2022-11-13T07:45:52;4.20;99.90
22742;DHT22;11538;48.884;8.696;2022-11-13T07:48:22;4.20;99.90
22742;DHT22;11538;48.884;8.696;2022-11-13T07:50:49;4.20;99.90
22742;DHT22;11538;48.884;8.696;2022-11-13T07:53:17;4.30;99.90
22742;DHT22;11538;48.884;8.696;2022-11-13T07:55:45;4.30;99.90
22742;DHT22;11538;48.884;8.696;2022-11-13T07:58:12;4.40;99.90
22742;DHT22;11538;48.884;8.696;2022-11-13T08:00:39;4.40;99.90
22742;DHT22;11538;48.884;8.696;2022-11-13T08:03:06;4.50;99.90
22742;DHT22;11538;48.884;8.696;2022-11-13T08:05:35;4.50;99.90
22742;DHT22;11538;48.884;8.696;2022-11-13T08:08:03;4.60;99.90
22742;DHT22;11538;48.884;8.696;2022-11-13T08:10:30;4.60;99.90
22742;DHT22;11538;48.884;8.696;2022-11-13T08:13:00;4.70;99.90
22742;DHT22;11538;48.884;8.696;2022-11-13T08:15:29;4.80;99.90
22742;DHT22;11538;48.884;8.696;2022-11-13T08:17:57;4.80;99.90
22742;DHT22;11538;48.884;8.696;2022-11-13T08:20:26;4.90;99.90
22742;DHT22;11538;48.884;8.696;2022-11-13T08:23:00;4.90;99.90
22742;DHT22;11538;48.884;8.696;2022-11-13T08:25:29;5.00;99.90
22742;DHT22;11538;48.884;8.696;2022-11-13T08:27:58;5.10;99.90
22742;DHT22;11538;48.884;8.696;2022-11-13T08:30:25;5.20;99.90
22742;DHT22;11538;48.884;8.696;2022-11-13T08:32:53;5.30;99.90
22742;DHT22;11538;48.884;8.696;2022-11-13T08:35:20;5.40;99.90
22742;DHT22;11538;48.884;8.696;2022-11-13T08:37:59;5.60;99.90
22742;DHT22;11538;48.884;8.696;2022-11-13T08:40:26;5.70;99.90
22742;DHT22;11538;48.884;8.696;2022-11-13T08:43:03;5.80;99.90
22742;DHT22;11538;48.884;8.696;2022-11-13T08:45:30;6.00;99.90
22742;DHT22;11538;48.884;8.696;2022-11-13T08:48:00;6.20;99.90
22742;DHT22;11538;48.884;8.696;2022-11-13T08:50:28;6.30;99.90
22742;DHT22;11538;48.884;8.696;2022-11-13T08:52:55;6.50;99.90
22742;DHT22;11538;48.884;8.696;2022-11-13T08:55:23;6.60;99.90
22742;DHT22;11538;48.884;8.696;2022-11-13T08:57:50;6.70;99.90
22742;DHT22;11538;48.884;8.696;2022-11-13T09:00:17;6.90;99.90
22742;DHT22;11538;48.884;8.696;2022-11-13T09:02:45;7.00;99.90
22742;DHT22;11538;48.884;8.696;2022-11-13T09:05:12;7.10;99.90
22742;DHT22;11538;48.884;8.696;2022-11-13T09:07:39;7.20;99.90
22742;DHT22;11538;48.884;8.696;2022-11-13T09:10:06;7.30;99.90
22742;DHT22;11538;48.884;8.696;2022-11-13T09:12:33;7.40;99.90
22742;DHT22;11538;48.884;8.696;2022-11-13T09:15:00;7.50;99.90
22742;DHT22;11538;48.884;8.696;2022-11-13T09:17:26;7.60;99.90
22742;DHT22;11538;48.884;8.696;2022-11-13T09:19:53;7.70;99.90
22742;DHT22;11538;48.884;8.696;2022-11-13T09:22:20;7.80;99.90
22742;DHT22;11538;48.884;8.696;2022-11-13T09:24:47;7.90;99.90
22742;DHT22;11538;48.884;8.696;2022-11-13T09:27:13;8.00;99.90
22742;DHT22;11538;48.884;8.696;2022-11-13T09:29:40;8.10;99.90
22742;DHT22;11538;48.884;8.696;2022-11-13T09:32:08;8.10;99.90
22742;DHT22;11538;48.884;8.696;2022-11-13T09:34:35;8.20;99.90
22742;DHT22;11538;48.884;8.696;2022-11-13T09:37:01;8.20;99.90
22742;DHT22;11538;48.884;8.696;2022-11-13T09:39:28;8.40;99.90
22742;DHT22;11538;48.884;8.696;2022-11-13T09:41:56;8.50;99.90
22742;DHT22;11538;48.884;8.696;2022-11-13T09:44:35;8.60;99.90
22742;DHT22;11538;48.884;8.696;2022-11-13T09:47:19;8.70;99.90
22742;DHT22;11538;48.884;8.696;2022-11-13T09:49:50;8.80;99.90
22742;DHT22;11538;48.884;8.696;2022-11-13T09:52:29;9.00;99.90
22742;DHT22;11538;48.884;8.696;2022-11-13T09:55:00;9.00;99.90
22742;DHT22;11538;48.884;8.696;2022-11-13T09:57:29;9.10;99.90
22742;DHT22;11538;48.884;8.696;2022-11-13T10:00:05;9.20;99.90
22742;DHT22;11538;48.884;8.696;2022-11-13T10:09:01;9.40;99.90
22742;DHT22;11538;48.884;8.696;2022-11-13T10:11:39;9.50;99.90
22742;DHT22;11538;48.884;8.696;2022-11-13T10:14:13;9.50;99.90
22742;DHT22;11538;48.884;8.696;2022-11-13T10:16:46;9.60;99.90
22742;DHT22;11538;48.884;8.696;2022-11-13T10:19:23;9.70;99.90
22742;DHT22;11538;48.884;8.696;2022-11-13T10:22:00;9.70;99.90
22742;DHT22;11538;48.884;8.696;2022-11-13T10:24:51;9.80;99.90
22742;DHT22;11538;48.884;8.696;2022-11-13T10:27:24;9.90;99.90
22742;DHT22;11538;48.884;8.696;2022-11-13T10:29:50;10.00;99.90
22742;DHT22;11538;48.884;8.696;2022-11-13T10:32:24;10.10;99.90
22742;DHT22;11538;48.884;8.696;2022-11-13T10:34:56;10.20;99.90
22742;DHT22;11538;48.884;8.696;2022-11-13T10:37:47;10.30;99.90
22742;DHT22;11538;48.884;8.696;2022-11-13T10:40:37;10.30;99.90
22742;DHT22;11538;48.884;8.696;2022-11-13T10:43:09;10.50;99.90
22742;DHT22;11538;48.884;8.696;2022-11-13T10:45:41;10.60;99.90
22742;DHT22;11538;48.884;8.696;2022-11-13T10:48:19;10.70;99.90
22742;DHT22;11538;48.884;8.696;2022-11-13T10:50:55;10.80;99.90
22742;DHT22;11538;48.884;8.696;2022-11-13T10:53:34;11.00;99.90
22742;DHT22;11538;48.884;8.696;2022-11-13T10:56:21;11.10;99.90
22742;DHT22;11538;48.884;8.696;2022-11-13T10:59:04;11.30;99.90
22742;DHT22;11538;48.884;8.696;2022-11-13T11:01:36;11.40;99.90
22742;DHT22;11538;48.884;8.696;2022-11-13T11:04:04;11.50;99.90
22742;DHT22;11538;48.884;8.696;2022-11-13T11:06:33;11.70;99.90
22742;DHT22;11538;48.884;8.696;2022-11-13T11:09:24;11.80;99.90
22742;DHT22;11538;48.884;8.696;2022-11-13T11:11:57;12.00;99.90
22742;DHT22;11538;48.884;8.696;2022-11-13T11:17:30;12.20;99.90
22742;DHT22;11538;48.884;8.696;2022-11-13T11:19:59;12.30;99.90
22742;DHT22;11538;48.884;8.696;2022-11-13T11:22:30;12.40;99.90
22742;DHT22;11538;48.884;8.696;2022-11-13T11:25:11;12.50;99.90
22742;DHT22;11538;48.884;8.696;2022-11-13T11:27:47;12.70;99.90
22742;DHT22;11538;48.884;8.696;2022-11-13T11:30:42;12.80;99.90
22742;DHT22;11538;48.884;8.696;2022-11-13T11:35:53;13.10;99.90
22742;DHT22;11538;48.884;8.696;2022-11-13T11:38:25;13.20;99.90
22742;DHT22;11538;48.884;8.696;2022-11-13T11:41:22;13.30;99.90
22742;DHT22;11538;48.884;8.696;2022-11-13T11:43:56;13.40;99.90
22742;DHT22;11538;48.884;8.696;2022-11-13T11:46:30;13.60;99.90
22742;DHT22;11538;48.884;8.696;2022-11-13T11:48:58;13.70;99.90
22742;DHT22;11538;48.884;8.696;2022-11-13T11:51:29;13.90;99.90
22742;DHT22;11538;48.884;8.696;2022-11-13T11:54:24;14.00;99.90
22742;DHT22;11538;48.884;8.696;2022-11-13T11:57:06;14.10;99.90
22742;DHT22;11538;48.884;8.696;2022-11-13T12:10:39;14.50;99.90
22742;DHT22;11538;48.884;8.696;2022-11-13T12:21:26;14.90;99.90
22742;DHT22;11538;48.884;8.696;2022-11-13T12:27:48;15.00;99.90
22742;DHT22;11538;48.884;8.696;2022-11-13T12:30:14;15.10;99.90
22742;DHT22;11538;48.884;8.696;2022-11-13T12:35:32;15.30;99.90
22742;DHT22;11538;48.884;8.696;2022-11-13T12:41:43;15.50;99.90
22742;DHT22;11538;48.884;8.696;2022-11-13T12:43:50;15.50;99.90
22742;DHT22;11538;48.884;8.696;2022-11-13T12:46:36;15.60;99.90
22742;DHT22;11538;48.884;8.696;2022-11-13T12:52:15;15.70;99.90
22742;DHT22;11538;48.884;8.696;2022-11-13T12:54:45;15.70;99.90
22742;DHT22;11538;48.884;8.696;2022-11-13T12:59:53;15.90;99.90
22742;DHT22;11538;48.884;8.696;2022-11-13T13:02:42;16.00;99.90
22742;DHT22;11538;48.884;8.696;2022-11-13T13:11:28;16.10;99.90
22742;DHT22;11538;48.884;8.696;2022-11-13T13:19:40;16.10;99.90
22742;DHT22;11538;48.884;8.696;2022-11-13T13:22:10;16.00;99.90
22742;DHT22;11538;48.884;8.696;2022-11-13T13:25:00;15.90;99.90
22742;DHT22;11538;48.884;8.696;2022-11-13T13:27:32;15.90;99.90
22742;DHT22;11538;48.884;8.696;2022-11-13T13:30:17;15.80;99.90
22742;DHT22;11538;48.884;8.696;2022-11-13T13:33:01;15.60;99.90
22742;DHT22;11538;48.884;8.696;2022-11-13T13:35:47;15.50;99.90
22742;DHT22;11538;48.884;8.696;2022-11-13T13:46:17;14.50;99.90
22742;DHT22;11538;48.884;8.696;2022-11-13T13:48:48;14.30;99.90
22742;DHT22;11538;48.884;8.696;2022-11-13T13:51:25;14.10;99.90
22742;DHT22;11538;48.884;8.696;2022-11-13T13:53:57;14.00;99.90
22742;DHT22;11538;48.884;8.696;2022-11-13T13:56:25;13.80;99.90
22742;DHT22;11538;48.884;8.696;2022-11-13T13:58:52;13.60;99.90
22742;DHT22;11538;48.884;8.696;2022-11-13T14:01:30;13.50;99.90
22742;DHT22;11538;48.884;8.696;2022-11-13T14:04:05;13.40;99.90
22742;DHT22;11538;48.884;8.696;2022-11-13T14:06:52;13.20;99.90
22742;DHT22;11538;48.884;8.696;2022-11-13T14:09:25;13.10;99.90
22742;DHT22;11538;48.884;8.696;2022-11-13T14:12:19;13.00;99.90
22742;DHT22;11538;48.884;8.696;2022-11-13T14:14:47;12.90;99.90
22742;DHT22;11538;48.884;8.696;2022-11-13T14:17:20;12.80;99.90
22742;DHT22;11538;48.884;8.696;2022-11-13T14:19:54;12.70;99.90
22742;DHT22;11538;48.884;8.696;2022-11-13T14:22:26;12.60;99.90
22742;DHT22;11538;48.884;8.696;2022-11-13T14:24:56;12.50;99.90
22742;DHT22;11538;48.884;8.696;2022-11-13T14:27:26;12.50;99.90
22742;DHT22;11538;48.884;8.696;2022-11-13T14:29:54;12.40;99.90
22742;DHT22;11538;48.884;8.696;2022-11-13T14:32:25;12.30;99.90
22742;DHT22;11538;48.884;8.696;2022-11-13T14:34:55;12.20;99.90
22742;DHT22;11538;48.884;8.696;2022-11-13T14:37:35;12.10;99.90
22742;DHT22;11538;48.884;8.696;2022-11-13T14:40:05;12.10;99.90
22742;DHT22;11538;48.884;8.696;2022-11-13T14:42:45;12.00;99.90
22742;DHT22;11538;48.884;8.696;2022-11-13T14:45:18;11.90;99.90
22742;DHT22;11538;48.884;8.696;2022-11-13T14:48:19;11.90;99.90
22742;DHT22;11538;48.884;8.696;2022-11-13T14:51:06;11.80;99.90
22742;DHT22;11538;48.884;8.696;2022-11-13T14:53:59;11.80;99.90
22742;DHT22;11538;48.884;8.696;2022-11-13T14:56:38;11.60;99.90
22742;DHT22;11538;48.884;8.696;2022-11-13T14:59:12;11.60;99.90
22742;DHT22;11538;48.884;8.696;2022-11-13T15:01:55;11.50;99.90
22742;DHT22;11538;48.884;8.696;2022-11-13T15:04:23;11.50;99.90
22742;DHT22;11538;48.884;8.696;2022-11-13T15:06:51;11.40;99.90
22742;DHT22;11538;48.884;8.696;2022-11-13T15:09:22;11.40;99.90
22742;DHT22;11538;48.884;8.696;2022-11-13T15:11:50;11.30;99.90
22742;DHT22;11538;48.884;8.696;2022-11-13T15:14:19;11.20;99.90
22742;DHT22;11538;48.884;8.696;2022-11-13T15:16:50;11.20;99.90
22742;DHT22;11538;48.884;8.696;2022-11-13T15:19:29;11.20;99.90
22742;DHT22;11538;48.884;8.696;2022-11-13T15:21:59;11.10;99.90
22742;DHT22;11538;48.884;8.696;2022-11-13T15:24:47;11.00;99.90
22742;DHT22;11538;48.884;8.696;2022-11-13T15:27:14;10.90;99.90
22742;DHT22;11538;48.884;8.696;2022-11-13T15:29:42;10.90;99.90
22742;DHT22;11538;48.884;8.696;2022-11-13T15:32:10;10.80;99.90
22742;DHT22;11538;48.884;8.696;2022-11-13T15:34:38;10.70;99.90
22742;DHT22;11538;48.884;8.696;2022-11-13T15:37:13;10.70;99.90
22742;DHT22;11538;48.884;8.696;2022-11-13T15:39:41;10.60;99.90
22742;DHT22;11538;48.884;8.696;2022-11-13T15:42:15;10.50;99.90
22742;DHT22;11538;48.884;8.696;2022-11-13T15:44:44;10.50;99.90
22742;DHT22;11538;48.884;8.696;2022-11-13T15:47:24;10.30;99.90
22742;DHT22;11538;48.884;8.696;2022-11-13T15:50:00;10.20;99.90
22742;DHT22;11538;48.884;8.696;2022-11-13T15:52:46;10.10;99.90
22742;DHT22;11538;48.884;8.696;2022-11-13T15:55:26;10.00;99.90
22742;DHT22;11538;48.884;8.696;2022-11-13T15:57:56;10.00;99.90
22742;DHT22;11538;48.884;8.696;2022-11-13T16:00:24;9.90;99.90
22742;DHT22;11538;48.884;8.696;2022-11-13T16:02:52;9.80;99.90
22742;DHT22;11538;48.884;8.696;2022-11-13T16:05:22;9.80;99.90
22742;DHT22;11538;48.884;8.696;2022-11-13T16:07:52;9.80;99.90
22742;DHT22;11538;48.884;8.696;2022-11-13T16:10:22;9.80;99.90
22742;DHT22;11538;48.884;8.696;2022-11-13T16:12:53;9.70;99.90
22742;DHT22;11538;48.884;8.696;2022-11-13T16:15:21;9.60;99.90
22742;DHT22;11538;48.884;8.696;2022-11-13T16:17:50;9.60;99.90
22742;DHT22;11538;48.884;8.696;2022-11-13T16:20:20;9.50;99.90
22742;DHT22;11538;48.884;8.696;2022-11-13T16:22:48;9.40;99.90
22742;DHT22;11538;48.884;8.696;2022-11-13T16:25:17;9.30;99.90
22742;DHT22;11538;48.884;8.696;2022-11-13T16:27:46;9.20;99.90
22742;DHT22;11538;48.884;8.696;2022-11-13T16:30:17;9.10;99.90
22742;DHT22;11538;48.884;8.696;2022-11-13T16:32:46;9.10;99.90
22742;DHT22;11538;48.884;8.696;2022-11-13T16:35:14;9.00;99.90
22742;DHT22;11538;48.884;8.696;2022-11-13T16:37:43;9.00;99.90
22742;DHT22;11538;48.884;8.696;2022-11-13T16:40:21;8.90;99.90
22742;DHT22;11538;48.884;8.696;2022-11-13T16:42:49;8.80;99.90
22742;DHT22;11538;48.884;8.696;2022-11-13T16:45:18;8.80;99.90
22742;DHT22;11538;48.884;8.696;2022-11-13T16:47:45;8.80;99.90
22742;DHT22;11538;48.884;8.696;2022-11-13T16:50:14;8.70;99.90
22742;DHT22;11538;48.884;8.696;2022-11-13T16:52:45;8.70;99.90
22742;DHT22;11538;48.884;8.696;2022-11-13T16:55:12;8.70;99.90
22742;DHT22;11538;48.884;8.696;2022-11-13T16:57:39;8.70;99.90
22742;DHT22;11538;48.884;8.696;2022-11-13T17:00:07;8.70;99.90
22742;DHT22;11538;48.884;8.696;2022-11-13T17:02:37;8.70;99.90
22742;DHT22;11538;48.884;8.696;2022-11-13T17:05:04;8.60;99.90
22742;DHT22;11538;48.884;8.696;2022-11-13T17:07:31;8.60;99.90
22742;DHT22;11538;48.884;8.696;2022-11-13T17:09:58;8.60;99.90
22742;DHT22;11538;48.884;8.696;2022-11-13T17:12:49;8.50;99.90